Impacts TAF Board INFO
FOR SITUATIONAL AWARENESS. NOT TO BE USED FOR FLIGHT PLANNING PURPOSES.
IDs:

KLGA - New York/La Guardia, NY, US

Issued at 1330 UTC 20 Jan 2017
Updated at 1401 UTC 20 Jan 2017
Potential Impact None Slight Moderate High
Time1351Z 20/15Z 20/16Z 20/17Z 20/18Z 20/19Z 20/20Z 20/21Z 20/22Z 20/23Z 21/00Z 21/01Z 21/02Z 21/03Z
Type OBS PRVL PRVL PRVL PRVL PRVL PRVL PRVL PRVL PRVL PRVL PRVL PRVL PRVL
VIS 10 >6 >6 >6 >6 >6 6 6 3 3 3 1.5 1.5 2
CIG 28 25 25 25 25 25 20 20 15 15 15 10 10 8
Cover OVC OVC OVC OVC OVC OVC BKN BKN OVC OVC OVC OVC OVC OVC
FltCat MVFR MVFR MVFR MVFR MVFR MVFR MVFR MVFR MVFR MVFR MVFR IFR IFR IFR
WX -- -- -- -- -- -- -RA -RA -RA BR -RA BR -RA BR -RA BR -RA BR -RA BR
WDir 50 60 100 100 100 100 140 140 130 130 130 170 170 180
WSpd 7 6 4 4 4 4 6 6 6 6 6 4 4 4
WGst -- -- -- -- -- -- -- -- -- -- -- -- -- --

Raw TAF
KLGA 201330Z 2014/2112 06006KT P6SM OVC025
  FM201600 10004KT P6SM OVC025
  FM202000 14006KT 6SM -RA BKN020 BKN200
  FM202200 13006KT 3SM -RA BR OVC015
  FM210100 17004KT 1 1/2SM -RA BR OVC010
  FM210300 18004KT 2SM -RA BR OVC008
  FM210700 VRB03KT 2SM BR OVC006


Raw METAR
KLGA 201351Z 05007KT 10SM OVC028 06/00 A3001 RMK AO2 SLP161 T00560000 $
KLGA 201251Z 06006KT 10SM OVC028 05/M01 A3001 RMK AO2 SLP162 T00501006 $
KLGA 201151Z 05007KT 10SM OVC029 05/M01 A3000 RMK AO2 SLP159 T00501006 10061 20050 56007 $

METAR Board
Radar Display
Forecast Discussion

FOR SITUATIONAL AWARENESS. NOT TO BE USED FOR FLIGHT PLANNING PURPOSES.

Page loaded:  14:01 UTC  |   06:01 AM Pacific  |   07:01 AM Mountain  |   08:01 AM Central  |   09:01 AM Eastern

 

ADVISORIES

FORECASTS

FORECASTS

OBSERVATIONS

USER TOOLS

ABOUT US